Carson, VA (23830)

2:24 AM EST on March 04, 2015 (GMT -0500)
APRSWXNET South Prince George VA US | Change Station
CLOSE
Current Station
Personal Weather Station
Location: Carson, VA
Elevation: 109 ft
Nearby Weather Stations

Elev 109 ft 37.06 °N, 77.39 °W | Updated 19 minutes ago

Overcast
Overcast
39 °F
Feels Like 39 °F
N
0
Wind Variable Wind from SW
Gusts 4.0 mph

Today
High -- | Low -- °F
--% Chance of Precip.
Yesterday
High -- | Low -- °F
Precip. -- in
6:36 AM 6:06 PM
Waxing Gibbous, 98% visible
Pressure 29.95 in
Visibility 10.0 miles
Clouds Overcast 500 ft
Windchill 39 °F
Dew Point 39 °F
Humidity 100%
Rainfall 0.14 in
Snow Depth Not available.
UV 0 out of 12
Pollen 5.00 out of 12
Air Quality Not available.
Flu Activity Not available.
METAR KPTB 040715Z AUTO 22007G14KT 10SM OVC005 07/06 A2995 RMK AO2 T00650060

More Conditions Fewer Conditions

Pressure 29.95 in
Visibility 10.0 miles
Clouds Overcast 500 ft
Windchill 39 °F
Dew Point 39 °F
Humidity 100%
Rainfall 0.14 in
Snow Depth Not available.
UV 0 out of 12
Pollen 5.00 out of 12
Air Quality Not available.
Flu Activity Not available.
METAR KPTB 040715Z AUTO 22007G14KT 10SM OVC005 07/06 A2995 RMK AO2 T00650060

More Conditions Fewer Conditions

10-Day Weather Forecast

Almanac

Astronomy

Mar. 04, 2015 Rise Set
Actual Time
Civil Twilight
Nautical Twilight
Astronomical Twilight
Moon
Length of Visible Light
Length of Day
Tomorrow will be .
, % of the Moon is Illuminated

Today's Extremes

State Highs State Lows

Community

WunderPhotos

Upload Photos

1,802,402 photos uploaded!

WunderBlogs® & News

Nearby

Air Quality

  Air Quality AQ Index Pollutant
Not available.

Snow Depth

Station Depth Elevation

Earthquake Activity

City Distance Mag. Time & Date
Minimum magnitude displayed is 2.5.

Coastal Water Temperatures

Place Temperature

Nearby Weather Stations